createdAt,value
2018-12-22T00:00:26.186Z,11.59
2018-12-22T00:05:30.574Z,11.62
2018-12-22T00:07:58.867Z,11.55
2018-12-22T00:10:27.065Z,11.63
2018-12-22T00:12:55.443Z,11.58
2018-12-22T00:15:23.613Z,11.66
2018-12-22T00:17:51.893Z,11.62
2018-12-22T00:20:20.182Z,11.68
2018-12-22T00:22:48.667Z,11.69
2018-12-22T00:25:17.010Z,11.65
2018-12-22T00:27:45.465Z,11.67
2018-12-22T00:30:13.726Z,11.83
2018-12-22T00:32:42.135Z,11.82
2018-12-22T00:35:13.527Z,11.79
2018-12-22T00:37:41.948Z,11.91
2018-12-22T00:40:10.527Z,11.98
2018-12-22T00:42:38.660Z,11.93
2018-12-22T00:45:07.303Z,11.88
2018-12-22T00:47:36.318Z,11.87
2018-12-22T00:50:05.295Z,11.90
2018-12-22T00:52:34.197Z,11.85
2018-12-22T00:55:02.421Z,11.93
2018-12-22T00:57:30.703Z,11.96
2018-12-22T00:59:59.203Z,12.01
2018-12-22T01:02:27.436Z,11.95
2018-12-22T01:04:57.192Z,12.01
2018-12-22T01:07:25.761Z,11.98
2018-12-22T01:09:54.063Z,11.89
2018-12-22T01:12:22.266Z,11.87
2018-12-22T01:14:50.645Z,11.82
2018-12-22T01:17:18.887Z,11.87
2018-12-22T01:19:47.134Z,11.81
2018-12-22T01:22:15.470Z,11.73
2018-12-22T01:24:43.654Z,11.74
2018-12-22T01:27:11.839Z,11.59
2018-12-22T01:29:40.030Z,11.59
2018-12-22T01:32:08.230Z,11.53
2018-12-22T01:34:36.393Z,11.54
2018-12-22T01:37:04.610Z,11.59
2018-12-22T01:39:33.152Z,11.51
2018-12-22T01:42:01.483Z,11.49
2018-12-22T01:44:29.791Z,11.50
2018-12-22T01:46:58.206Z,11.54
2018-12-22T01:49:26.646Z,11.49
2018-12-22T01:51:54.984Z,11.50
2018-12-22T01:54:23.362Z,11.46
2018-12-22T01:56:51.759Z,11.43
2018-12-22T01:59:19.923Z,11.40
2018-12-22T02:01:48.113Z,11.40
2018-12-22T02:04:16.227Z,11.33
2018-12-22T02:06:44.344Z,11.30
2018-12-22T02:09:12.488Z,11.29
2018-12-22T02:11:40.635Z,11.16
2018-12-22T02:14:08.760Z,11.10
2018-12-22T02:16:36.952Z,11.25
2018-12-22T02:19:05.093Z,11.24
2018-12-22T02:21:33.292Z,11.35
2018-12-22T02:24:01.521Z,11.29
2018-12-22T02:26:29.607Z,11.28
2018-12-22T02:28:57.779Z,11.25
2018-12-22T02:31:26.003Z,11.29
2018-12-22T02:33:54.135Z,11.28
2018-12-22T02:36:22.269Z,11.36
2018-12-22T02:38:50.378Z,11.41
2018-12-22T02:41:18.532Z,11.38
2018-12-22T02:43:46.872Z,11.40
2018-12-22T02:46:15.007Z,11.36
2018-12-22T02:48:43.195Z,11.40
2018-12-22T02:51:11.317Z,11.43
2018-12-22T02:53:39.483Z,11.38
2018-12-22T02:56:07.660Z,11.35
2018-12-22T02:58:35.754Z,11.41
2018-12-22T03:01:03.925Z,11.43
2018-12-22T03:03:31.999Z,11.49
2018-12-22T03:06:00.245Z,11.51
2018-12-22T03:08:28.348Z,11.48
2018-12-22T03:10:56.517Z,11.40
2018-12-22T03:13:24.755Z,11.39
2018-12-22T03:15:52.866Z,11.38
2018-12-22T03:18:21.007Z,11.40
2018-12-22T03:20:49.075Z,11.32
2018-12-22T03:23:17.304Z,11.30
2018-12-22T03:25:45.523Z,11.29
2018-12-22T03:28:13.718Z,11.32
2018-12-22T03:30:41.874Z,11.20
2018-12-22T03:33:10.055Z,11.19
2018-12-22T03:35:38.272Z,11.18
2018-12-22T03:38:06.439Z,11.10
2018-12-22T03:40:34.675Z,11.06
2018-12-22T03:43:02.762Z,11.10
2018-12-22T03:45:30.844Z,11.14
2018-12-22T03:47:58.959Z,11.09
2018-12-22T03:50:27.086Z,11.27
2018-12-22T03:52:58.177Z,11.33
2018-12-22T03:55:26.311Z,11.32
2018-12-22T03:57:54.439Z,11.44
2018-12-22T04:00:22.514Z,11.45
2018-12-22T04:02:50.598Z,11.48
2018-12-22T04:05:18.744Z,11.43
2018-12-22T04:07:46.935Z,11.49
2018-12-22T04:10:15.220Z,11.43
2018-12-22T04:12:43.417Z,11.47
2018-12-22T04:15:11.552Z,11.43
2018-12-22T04:17:39.626Z,11.44
2018-12-22T04:20:07.845Z,11.43
2018-12-22T04:22:35.987Z,11.49
2018-12-22T04:25:04.247Z,11.48
2018-12-22T04:27:32.321Z,11.47
2018-12-22T04:30:00.476Z,11.49
2018-12-22T04:32:28.650Z,11.50
2018-12-22T04:34:56.723Z,11.53
2018-12-22T04:37:24.901Z,11.54
2018-12-22T04:39:53.046Z,11.55
2018-12-22T04:42:21.134Z,11.58
2018-12-22T04:47:23.570Z,11.61
2018-12-22T04:49:51.794Z,11.65
2018-12-22T04:52:19.877Z,11.66
2018-12-22T04:54:47.956Z,11.60
2018-12-22T04:57:16.128Z,11.67
2018-12-22T04:59:44.199Z,11.55
2018-12-22T05:02:12.351Z,11.47
2018-12-22T05:04:40.457Z,11.51
2018-12-22T05:07:08.522Z,11.46
2018-12-22T05:09:36.581Z,11.48
2018-12-22T05:12:04.697Z,11.57
2018-12-22T05:14:32.827Z,11.53
2018-12-22T05:17:00.993Z,11.51
2018-12-22T05:19:29.079Z,11.47
2018-12-22T05:21:57.164Z,11.46
2018-12-22T05:24:25.325Z,11.45
2018-12-22T05:26:53.474Z,11.52
2018-12-22T05:29:21.577Z,11.51
2018-12-22T05:31:49.740Z,11.58
2018-12-22T05:34:17.912Z,11.50
2018-12-22T05:36:46.022Z,11.52
2018-12-22T05:39:14.137Z,11.55
2018-12-22T05:41:42.374Z,11.59
2018-12-22T05:44:10.497Z,11.51
2018-12-22T05:46:38.637Z,11.56
2018-12-22T05:49:06.793Z,11.74
2018-12-22T05:51:34.949Z,11.74
2018-12-22T05:54:09.757Z,11.79
2018-12-22T05:56:37.898Z,11.86
2018-12-22T05:59:06.019Z,11.97
2018-12-22T06:01:34.085Z,11.89
2018-12-22T06:04:02.201Z,11.85
2018-12-22T06:06:30.381Z,11.99
2018-12-22T06:08:58.539Z,12.03
2018-12-22T06:11:26.718Z,12.09
2018-12-22T06:13:54.898Z,12.09
2018-12-22T06:16:22.993Z,12.12
2018-12-22T06:18:51.135Z,12.13
2018-12-22T06:21:19.229Z,12.08
2018-12-22T06:23:47.312Z,12.14
2018-12-22T06:26:15.438Z,12.31
2018-12-22T06:28:43.534Z,12.32
2018-12-22T06:31:11.617Z,12.35
2018-12-22T06:33:39.810Z,12.37
2018-12-22T06:36:07.917Z,12.29
2018-12-22T06:38:36.056Z,12.32
2018-12-22T06:41:04.284Z,12.40
2018-12-22T06:43:32.478Z,12.35
2018-12-22T06:46:00.574Z,12.16
2018-12-22T06:48:28.804Z,12.28
2018-12-22T06:50:56.919Z,12.28
2018-12-22T06:53:24.994Z,12.35
2018-12-22T06:55:53.087Z,12.46
2018-12-22T06:58:21.161Z,12.50
2018-12-22T07:00:49.245Z,12.47
2018-12-22T07:03:17.333Z,12.52
2018-12-22T07:05:48.456Z,12.43
2018-12-22T07:08:16.712Z,12.38
2018-12-22T07:10:44.842Z,12.47
2018-12-22T07:13:13.062Z,12.56
2018-12-22T07:15:41.259Z,12.51
2018-12-22T07:18:09.392Z,12.45
2018-12-22T07:20:37.545Z,12.45
2018-12-22T07:23:05.704Z,12.57
2018-12-22T07:25:34.025Z,12.60
2018-12-22T07:28:02.551Z,12.62
2018-12-22T07:30:30.761Z,12.69
2018-12-22T07:32:59.123Z,12.67
2018-12-22T07:35:27.363Z,12.52
2018-12-22T07:37:55.570Z,12.51
2018-12-22T07:40:23.813Z,12.61
2018-12-22T07:42:52.023Z,12.62
2018-12-22T07:45:20.160Z,12.64
2018-12-22T07:47:48.567Z,12.65
2018-12-22T07:50:16.841Z,12.68
2018-12-22T07:52:51.575Z,12.62
2018-12-22T07:55:15.587Z,12.61
2018-12-22T07:57:43.692Z,12.50
2018-12-22T08:00:12.080Z,12.48
2018-12-22T08:02:40.342Z,12.53
2018-12-22T08:05:08.560Z,12.60
2018-12-22T08:07:37.086Z,12.62
2018-12-22T08:10:05.817Z,12.65
2018-12-22T08:12:34.490Z,12.72
2018-12-22T08:15:02.897Z,12.65
2018-12-22T08:17:31.345Z,12.77
2018-12-22T08:19:59.683Z,12.82
2018-12-22T08:22:27.827Z,12.73
2018-12-22T08:24:56.359Z,12.74
2018-12-22T08:27:25.143Z,12.78
2018-12-22T08:29:53.315Z,12.76
2018-12-22T08:32:21.584Z,12.76
2018-12-22T08:34:49.911Z,12.70
2018-12-22T08:37:18.159Z,12.70
2018-12-22T08:39:46.403Z,12.70
2018-12-22T08:42:14.686Z,12.65
2018-12-22T08:44:49.532Z,12.62
2018-12-22T08:47:17.687Z,12.55
2018-12-22T08:49:45.777Z,12.53
2018-12-22T08:52:13.854Z,12.40
2018-12-22T08:54:42.004Z,12.33
2018-12-22T08:57:10.359Z,12.32
2018-12-22T08:59:38.536Z,12.27
2018-12-22T09:02:06.746Z,12.32
2018-12-22T09:04:35.346Z,12.32
2018-12-22T09:07:03.559Z,12.36
2018-12-22T09:09:31.771Z,12.36
2018-12-22T09:11:59.906Z,12.29
2018-12-22T09:14:28.040Z,12.29
2018-12-22T09:16:56.279Z,12.35
2018-12-22T09:19:24.510Z,12.38
2018-12-22T09:21:52.619Z,12.43
2018-12-22T09:24:22.908Z,12.47
2018-12-22T09:26:51.174Z,12.46
2018-12-22T09:29:19.432Z,12.38
2018-12-22T09:31:52.479Z,12.36
2018-12-22T09:34:22.049Z,12.42
2018-12-22T09:36:53.249Z,12.44
2018-12-22T09:39:26.029Z,12.43
2018-12-22T09:41:54.669Z,12.35
2018-12-22T09:44:24.046Z,11.80
2018-12-22T09:46:52.424Z,11.42
2018-12-22T09:49:20.641Z,10.87
2018-12-22T09:51:48.898Z,10.78
2018-12-22T09:54:17.585Z,10.59
2018-12-22T09:56:46.651Z,10.40
2018-12-22T09:59:17.907Z,10.35
2018-12-22T10:01:55.225Z,10.20
2018-12-22T10:04:29.389Z,10.10
2018-12-22T10:07:04.337Z,10.09
2018-12-22T10:09:38.928Z,10.14
2018-12-22T10:12:08.099Z,10.02
2018-12-22T10:14:39.825Z,10.10
2018-12-22T10:17:09.608Z,10.13
2018-12-22T10:19:40.546Z,10.15
2018-12-22T10:22:13.172Z,10.22
2018-12-22T10:24:44.665Z,10.21
2018-12-22T10:27:13.860Z,10.28
2018-12-22T10:29:46.029Z,10.14
2018-12-22T10:32:20.173Z,10.12
2018-12-22T10:34:50.518Z,10.19
2018-12-22T10:37:25.160Z,10.05
2018-12-22T10:39:53.953Z,10.21
2018-12-22T10:42:23.251Z,10.16
2018-12-22T10:44:52.215Z,10.11
2018-12-22T10:47:21.252Z,10.10
2018-12-22T10:49:49.657Z,10.20
2018-12-22T10:52:19.594Z,10.31
2018-12-22T10:54:47.924Z,10.38
2018-12-22T10:57:16.460Z,10.45
2018-12-22T10:59:44.845Z,10.50
2018-12-22T11:02:13.237Z,10.60
2018-12-22T11:04:41.719Z,10.72
2018-12-22T11:07:10.043Z,10.81
2018-12-22T11:09:39.555Z,10.97
2018-12-22T11:12:07.832Z,11.14
2018-12-22T11:14:37.513Z,11.26
2018-12-22T11:17:09.055Z,11.32
2018-12-22T11:19:40.442Z,11.44
2018-12-22T11:22:08.714Z,11.63
2018-12-22T11:24:37.219Z,11.79
2018-12-22T11:27:18.367Z,11.89
2018-12-22T11:29:54.363Z,12.08
2018-12-22T11:32:34.709Z,12.08
2018-12-22T11:35:25.497Z,12.16
2018-12-22T11:38:08.419Z,12.26
2018-12-22T11:40:38.973Z,12.23
2018-12-22T11:43:25.909Z,12.24
2018-12-22T11:46:00.269Z,12.38
2018-12-22T11:48:41.618Z,12.44
2018-12-22T11:51:12.859Z,12.42
2018-12-22T11:54:14.812Z,12.41
2018-12-22T11:56:49.809Z,12.49
2018-12-22T11:59:22.866Z,12.48
2018-12-22T12:01:51.517Z,12.55
2018-12-22T12:04:22.074Z,12.64
2018-12-22T12:06:51.776Z,12.73
2018-12-22T12:09:20.546Z,12.83
2018-12-22T12:11:48.958Z,12.86
2018-12-22T12:14:17.181Z,12.86
2018-12-22T12:17:00.346Z,12.91
2018-12-22T12:19:30.639Z,12.83
2018-12-22T12:21:58.889Z,12.91
2018-12-22T12:24:27.525Z,12.75
2018-12-22T12:26:55.823Z,12.78
2018-12-22T12:29:24.193Z,12.78
2018-12-22T12:31:52.611Z,12.77
2018-12-22T12:34:20.909Z,12.79
2018-12-22T12:36:49.170Z,12.82
2018-12-22T12:39:17.454Z,12.84
2018-12-22T12:41:45.954Z,12.84
2018-12-22T12:44:14.261Z,13.02
2018-12-22T12:46:50.963Z,12.88
2018-12-22T12:49:20.135Z,13.01
2018-12-22T12:51:48.541Z,13.06
2018-12-22T12:54:16.862Z,13.06
2018-12-22T12:56:53.604Z,13.04
2018-12-22T12:59:22.284Z,12.94
2018-12-22T13:01:50.552Z,12.99
2018-12-22T13:04:18.933Z,13.12
2018-12-22T13:09:35.644Z,13.03
2018-12-22T13:12:14.052Z,13.01
2018-12-22T13:14:43.620Z,13.06
2018-12-22T13:17:12.058Z,13.14
2018-12-22T13:19:40.252Z,13.13
2018-12-22T13:22:08.522Z,13.10
2018-12-22T13:24:36.822Z,13.17
2018-12-22T13:27:05.038Z,13.08
2018-12-22T13:29:33.260Z,13.02
2018-12-22T13:32:09.301Z,13.04
2018-12-22T13:34:31.796Z,12.96
2018-12-22T13:37:00.013Z,12.94
2018-12-22T13:39:29.325Z,12.97
2018-12-22T13:41:57.616Z,12.92
2018-12-22T13:44:26.087Z,12.95
2018-12-22T13:46:54.331Z,12.99
2018-12-22T13:49:22.634Z,12.86
2018-12-22T13:51:50.815Z,12.85
2018-12-22T13:54:22.098Z,12.92
2018-12-22T13:56:50.437Z,12.88
2018-12-22T13:59:18.821Z,12.87
2018-12-22T14:01:53.051Z,12.72
2018-12-22T14:04:21.357Z,12.69
2018-12-22T14:06:49.536Z,12.65
2018-12-22T14:09:17.720Z,12.60
2018-12-22T14:11:46.014Z,12.69
2018-12-22T14:14:22.234Z,12.60
2018-12-22T14:19:00.365Z,12.58
2018-12-22T14:21:29.089Z,12.45
2018-12-22T14:24:09.341Z,12.39
2018-12-22T14:26:37.685Z,12.33
2018-12-22T14:29:05.887Z,12.28
2018-12-22T14:31:34.168Z,12.21
2018-12-22T14:34:07.195Z,12.22
2018-12-22T14:36:35.583Z,12.11
2018-12-22T14:39:04.514Z,12.17
2018-12-22T14:41:32.747Z,12.15
2018-12-22T14:44:01.097Z,12.07
2018-12-22T14:46:29.281Z,11.97
2018-12-22T14:49:01.117Z,11.99
2018-12-22T14:51:31.358Z,11.90
2018-12-22T14:54:12.252Z,11.96
2018-12-22T14:56:43.934Z,11.93
2018-12-22T14:59:20.046Z,11.83
2018-12-22T15:01:52.402Z,11.73
2018-12-22T15:04:20.821Z,11.75
2018-12-22T15:06:48.959Z,11.78
2018-12-22T15:09:17.028Z,11.60
2018-12-22T15:11:45.189Z,11.63
2018-12-22T15:14:13.401Z,11.43
2018-12-22T15:16:41.531Z,11.45
2018-12-22T15:19:09.696Z,11.40
2018-12-22T15:21:37.909Z,11.38
2018-12-22T15:24:07.667Z,11.37
2018-12-22T15:26:35.913Z,11.40
2018-12-22T15:29:04.239Z,11.39
2018-12-22T15:31:32.445Z,11.27
2018-12-22T15:34:00.791Z,11.24
2018-12-22T15:36:29.066Z,11.25
2018-12-22T15:39:00.370Z,11.12
2018-12-22T15:41:31.033Z,11.19
2018-12-22T15:43:59.347Z,10.98
2018-12-22T15:46:31.250Z,10.94
2018-12-22T15:49:09.471Z,11.07
2018-12-22T15:51:52.748Z,10.96
2018-12-22T15:54:25.473Z,10.87
2018-12-22T15:56:53.942Z,10.86
2018-12-22T15:59:22.176Z,10.79
2018-12-22T16:01:50.297Z,10.81
2018-12-22T16:04:18.374Z,10.80
2018-12-22T16:06:46.524Z,10.79
2018-12-22T16:09:14.612Z,10.73
2018-12-22T16:11:42.754Z,10.78
2018-12-22T16:14:10.912Z,10.65
2018-12-22T16:16:40.030Z,10.51
2018-12-22T16:19:08.245Z,10.52
2018-12-22T16:21:36.417Z,10.54
2018-12-22T16:24:04.666Z,10.41
2018-12-22T16:29:23.871Z,10.31
2018-12-22T16:31:58.473Z,10.37
2018-12-22T16:35:29.241Z,10.34
2018-12-22T16:38:13.494Z,10.17
2018-12-22T16:40:48.486Z,10.27
2018-12-22T16:43:21.048Z,10.18
2018-12-22T16:46:00.685Z,10.14
2018-12-22T16:48:30.253Z,10.08
2018-12-22T16:51:07.560Z,9.96
2018-12-22T16:53:35.824Z,10.03
2018-12-22T16:59:21.281Z,9.97
2018-12-22T17:03:49.407Z,10.03
2018-12-22T17:06:17.892Z,9.97
2018-12-22T17:08:47.710Z,9.93
2018-12-22T17:11:16.278Z,9.97
2018-12-22T17:13:46.456Z,10.00
2018-12-22T17:16:15.484Z,10.00
2018-12-22T17:18:43.831Z,9.97
2018-12-22T17:21:40.867Z,9.85
2018-12-22T17:24:16.076Z,9.81
2018-12-22T17:26:45.569Z,9.91
2018-12-22T17:29:13.836Z,9.75
2018-12-22T17:31:43.101Z,9.75
2018-12-22T17:34:11.512Z,9.83
2018-12-22T17:36:39.903Z,9.83
2018-12-22T17:39:10.572Z,9.85
2018-12-22T17:41:39.253Z,9.82
2018-12-22T17:44:07.537Z,9.86
2018-12-22T17:46:35.854Z,9.83
2018-12-22T17:49:04.898Z,9.74
2018-12-22T17:51:35.270Z,9.82
2018-12-22T17:54:03.514Z,9.83
2018-12-22T17:56:31.839Z,9.83
2018-12-22T17:59:00.104Z,9.76
2018-12-22T18:01:28.360Z,9.70
2018-12-22T18:03:56.652Z,9.79
2018-12-22T18:06:24.868Z,9.79
2018-12-22T18:08:53.115Z,9.89
2018-12-22T18:11:21.381Z,9.92
2018-12-22T18:13:49.650Z,9.98
2018-12-22T18:16:18.032Z,9.98
2018-12-22T18:18:46.418Z,9.99
2018-12-22T18:21:14.699Z,9.98
2018-12-22T18:23:43.113Z,9.99
2018-12-22T18:26:11.541Z,10.04
2018-12-22T18:28:39.828Z,10.14
2018-12-22T18:31:08.133Z,10.12
2018-12-22T18:33:36.441Z,10.23
2018-12-22T18:36:05.443Z,10.26
2018-12-22T18:38:33.766Z,10.33
2018-12-22T18:41:02.379Z,10.26
2018-12-22T18:43:30.679Z,10.25
2018-12-22T18:45:58.996Z,10.12
2018-12-22T18:48:28.327Z,10.03
2018-12-22T18:50:56.546Z,10.13
2018-12-22T18:53:24.930Z,10.23
2018-12-22T18:56:03.034Z,10.22
2018-12-22T18:58:31.216Z,10.18
2018-12-22T19:00:59.437Z,10.16
2018-12-22T19:03:31.007Z,10.14
2018-12-22T19:06:02.591Z,10.21
2018-12-22T19:08:35.760Z,10.26
2018-12-22T19:11:15.484Z,10.30
2018-12-22T19:13:44.319Z,10.27
2018-12-22T19:16:16.801Z,10.23
2018-12-22T19:18:46.317Z,10.13
2018-12-22T19:21:16.821Z,10.20
2018-12-22T19:23:51.446Z,10.16
2018-12-22T19:26:28.977Z,10.15
2018-12-22T19:29:04.856Z,10.08
2018-12-22T19:31:41.945Z,10.02
2018-12-22T19:34:30.349Z,10.05
2018-12-22T19:37:04.761Z,10.01
2018-12-22T19:39:45.751Z,9.87
2018-12-22T19:42:21.148Z,9.82
2018-12-22T19:45:01.403Z,9.71
2018-12-22T19:47:42.854Z,9.69
2018-12-22T19:50:41.929Z,9.60
2018-12-22T19:53:13.649Z,9.60
2018-12-22T19:55:45.305Z,9.48
2018-12-22T19:58:18.202Z,9.40
2018-12-22T20:01:30.251Z,9.46
2018-12-22T20:04:08.997Z,9.35
2018-12-22T20:06:48.667Z,9.47
2018-12-22T20:09:32.341Z,9.49
2018-12-22T20:12:13.039Z,9.66
2018-12-22T20:14:46.522Z,9.59
2018-12-22T20:17:25.331Z,9.61
2018-12-22T20:20:05.177Z,9.58
2018-12-22T20:22:40.323Z,9.66
2018-12-22T20:25:19.818Z,9.79
2018-12-22T20:27:54.792Z,9.78
2018-12-22T20:33:51.156Z,9.88
2018-12-22T20:36:33.095Z,9.92
2018-12-22T20:39:09.006Z,9.92
2018-12-22T20:41:52.497Z,9.85
2018-12-22T20:44:29.442Z,9.96
2018-12-22T20:50:19.117Z,9.81
2018-12-22T20:55:11.813Z,9.88
2018-12-22T20:57:41.936Z,9.88
2018-12-22T21:00:12.720Z,9.98
2018-12-22T21:02:43.999Z,10.00
2018-12-22T21:05:14.242Z,9.95
2018-12-22T21:07:46.751Z,9.96
2018-12-22T21:10:16.277Z,9.98
2018-12-22T21:12:47.997Z,10.02
2018-12-22T21:15:19.856Z,10.11
2018-12-22T21:17:50.425Z,10.10
2018-12-22T21:20:22.531Z,10.11
2018-12-22T21:22:54.604Z,10.14
2018-12-22T21:25:29.402Z,10.14
2018-12-22T21:28:24.043Z,10.18
2018-12-22T21:30:53.773Z,10.22
2018-12-22T21:33:27.781Z,10.22
2018-12-22T21:35:58.151Z,10.16
2018-12-22T21:38:31.115Z,10.15
2018-12-22T21:41:10.493Z,10.18
2018-12-22T21:43:44.307Z,10.24
2018-12-22T21:46:18.935Z,10.26
2018-12-22T21:51:38.857Z,10.17
2018-12-22T21:54:16.441Z,10.26
2018-12-22T21:56:48.113Z,10.27
2018-12-22T21:59:19.579Z,10.19
2018-12-22T22:01:58.172Z,10.18
2018-12-22T22:04:41.794Z,10.14
2018-12-22T22:07:16.825Z,10.23
2018-12-22T22:09:49.999Z,10.08
2018-12-22T22:12:26.381Z,10.06
2018-12-22T22:14:56.405Z,10.01
2018-12-22T22:17:28.361Z,10.09
2018-12-22T22:20:01.187Z,10.11
2018-12-22T22:22:41.322Z,10.15
2018-12-22T22:25:15.656Z,10.05
2018-12-22T22:27:45.653Z,10.11
2018-12-22T22:30:16.266Z,9.93
2018-12-22T22:32:55.685Z,9.84
2018-12-22T22:35:40.101Z,9.87
2018-12-22T22:38:16.386Z,9.80
2018-12-22T22:40:51.122Z,9.74
2018-12-22T22:43:25.173Z,9.63
2018-12-22T22:45:59.389Z,9.58
2018-12-22T22:48:37.475Z,9.54
2018-12-22T22:51:10.261Z,9.57
2018-12-22T22:53:41.116Z,9.58
2018-12-22T22:56:10.639Z,9.63
2018-12-22T22:58:42.772Z,9.58
2018-12-22T23:01:14.816Z,9.62
2018-12-22T23:03:49.751Z,9.59
2018-12-22T23:06:32.562Z,9.65
2018-12-22T23:09:04.396Z,9.62
2018-12-22T23:11:36.526Z,9.59
2018-12-22T23:14:11.091Z,9.65
2018-12-22T23:16:47.170Z,9.61
2018-12-22T23:19:18.951Z,9.64
2018-12-22T23:21:51.490Z,9.61
2018-12-22T23:24:24.023Z,9.62
2018-12-22T23:26:55.090Z,9.57
2018-12-22T23:29:27.123Z,9.58
2018-12-22T23:32:07.320Z,9.57
2018-12-22T23:34:37.343Z,9.57
2018-12-22T23:37:08.039Z,9.58
2018-12-22T23:42:41.138Z,9.58
2018-12-22T23:45:11.878Z,9.58
2018-12-22T23:47:43.597Z,9.62
2018-12-22T23:50:32.611Z,9.58
2018-12-22T23:53:18.436Z,9.60
2018-12-22T23:55:56.952Z,9.61
2018-12-22T23:58:35.923Z,9.55
